Time;durP1;ratioP1;P1;durP2;ratioP2;P2;SDS_P1;SDS_P2;PMS_P1;PMS_P2;Temp;Humidity;BMP_temperature;BMP_pressure;BME280_temperature;BME280_humidity;BME280_pressure;Samples;Min_cycle;Max_cycle;Signal;HPM_P1;HPM_P2
2022/07/20 00:00:34;;;;;;;7.60;3.60;;;24.90;51.70;;;;;;5056458;28;20075;-76
2022/07/20 00:03:14;;;;;;;10.35;3.50;;;24.90;51.80;;;;;;5054888;28;20088;-76
2022/07/20 00:05:41;;;;;;;6.75;3.63;;;26.30;52.70;;;;;;5018085;28;20631;-77
2022/07/20 00:08:06;;;;;;;7.30;3.65;;;24.80;51.80;;;;;;5003543;28;20101;-77
2022/07/20 00:13:17;;;;;;;8.45;3.42;;;24.70;52.60;;;;;;5016765;28;20123;-76
2022/07/20 00:15:43;;;;;;;7.85;3.78;;;24.60;51.90;;;;;;5016363;28;20053;-77
2022/07/20 00:18:09;;;;;;;6.20;3.70;;;24.60;51.90;;;;;;5016598;28;20046;-77
2022/07/20 00:20:35;;;;;;;8.00;3.70;;;24.60;51.80;;;;;;5034435;28;20050;-77
2022/07/20 00:23:02;;;;;;;10.10;3.70;;;24.60;57.60;;;;;;5033909;28;20053;-76
2022/07/20 00:25:28;;;;;;;6.20;3.63;;;24.50;51.80;;;;;;5016463;28;20417;-76
2022/07/20 00:27:54;;;;;;;10.35;3.95;;;24.60;51.90;;;;;;5034169;28;20056;-77
2022/07/20 00:30:20;;;;;;;9.73;3.80;;;24.60;52.00;;;;;;5033996;28;20111;-77
2022/07/20 00:32:45;;;;;;;10.00;3.85;;;24.70;52.10;;;;;;5016224;28;20072;-77
2022/07/20 00:35:13;;;;;;;9.73;3.78;;;26.60;53.50;;;;;;5033894;28;20107;-77
2022/07/20 00:37:41;;;;;;;8.80;3.70;;;25.60;52.70;;;;;;5034289;28;20132;-77
2022/07/20 00:40:10;;;;;;;6.47;3.50;;;24.40;52.10;;;;;;5033908;28;20508;-77
2022/07/20 00:42:37;;;;;;;5.82;3.45;;;24.40;52.10;;;;;;5033702;28;20049;-76
2022/07/20 00:45:06;;;;;;;11.57;3.90;;;24.50;52.00;;;;;;5033939;28;20051;-77
2022/07/20 00:47:31;;;;;;;8.68;3.47;;;24.40;52.00;;;;;;5015916;28;20100;-77
2022/07/20 00:49:57;;;;;;;7.78;3.70;;;24.40;56.60;;;;;;5033721;28;20085;-76
2022/07/20 00:52:23;;;;;;;10.90;3.95;;;24.30;52.00;;;;;;5015978;28;20454;-77
2022/07/20 00:54:50;;;;;;;9.82;3.88;;;24.30;52.00;;;;;;5015828;28;20056;-77
2022/07/20 00:57:16;;;;;;;10.13;4.03;;;24.30;52.20;;;;;;5016089;28;20092;-76
2022/07/20 01:02:21;;;;;;;11.45;4.00;;;24.20;52.30;;;;;;5082826;23;20050;-85
2022/07/20 01:04:47;;;;;;;10.50;4.05;;;24.30;56.40;;;;;;4997620;28;20050;-85
2022/07/20 01:07:13;;;;;;;11.88;4.03;;;;;;;;;;5014326;28;20399;-85
2022/07/20 01:09:48;;;;;;;10.25;3.88;;;24.10;52.00;;;;;;4997024;28;20085;-84
2022/07/20 01:12:14;;;;;;;8.52;3.63;;;;;;;;;;4980690;28;20073;-85
2022/07/20 01:14:39;;;;;;;6.30;3.80;;;24.00;52.30;;;;;;4996748;28;20532;-83
2022/07/20 01:17:09;;;;;;;13.02;3.88;;;26.90;58.50;;;;;;4997660;28;20085;-84
2022/07/20 01:19:37;;;;;;;9.52;3.70;;;23.90;52.50;;;;;;5015337;28;20408;-84
2022/07/20 01:22:03;;;;;;;7.05;3.92;;;;;;;;;;5015038;28;20056;-84
2022/07/20 01:24:29;;;;;;;14.85;4.07;;;;;;;;;;4997319;28;20062;-84
2022/07/20 01:27:21;;;;;;;9.68;4.22;;;23.80;52.50;;;;;;4996785;28;20519;-84
2022/07/20 01:29:49;;;;;;;5.93;3.70;;;23.80;52.60;;;;;;5012706;28;20471;-84
2022/07/20 01:32:18;;;;;;;8.52;3.60;;;23.80;52.60;;;;;;5015692;28;20132;-84
2022/07/20 01:34:46;;;;;;;9.73;4.00;;;23.80;52.60;;;;;;5019958;28;20364;-84
2022/07/20 01:37:37;;;;;;;6.88;3.80;;;25.90;55.80;;;;;;5040218;28;20057;-83
2022/07/20 01:40:21;;;;;;;8.73;3.92;;;24.30;57.50;;;;;;4967851;28;20050;-84
2022/07/20 01:42:49;;;;;;;6.45;3.95;;;24.10;56.70;;;;;;5037490;28;20476;-84
2022/07/20 01:45:18;;;;;;;8.45;3.80;;;23.90;56.10;;;;;;5036346;28;20111;-84
2022/07/20 01:47:53;;;;;;;9.55;3.78;;;23.70;53.20;;;;;;5015975;28;20128;-84
2022/07/20 01:50:25;;;;;;;12.38;4.32;;;23.50;60.50;;;;;;5033841;28;20053;-84
2022/07/20 01:52:53;;;;;;;8.25;4.05;;;23.60;53.30;;;;;;5033418;28;20053;-84
2022/07/20 01:55:21;;;;;;;8.35;3.95;;;23.50;53.30;;;;;;5033249;28;20077;-84
2022/07/20 01:57:49;;;;;;;10.15;4.20;;;23.50;53.50;;;;;;5033272;28;20129;-84
2022/07/20 02:00:21;;;;;;;6.82;3.95;;;23.60;57.90;;;;;;5015452;28;20420;-84
2022/07/20 02:03:13;;;;;;;9.13;4.00;;;22.10;60.80;;;;;;5032850;28;20057;-84
2022/07/20 02:05:41;;;;;;;8.48;3.80;;;23.40;53.80;;;;;;5023750;28;20053;-84
2022/07/20 02:08:09;;;;;;;9.55;4.13;;;;;;;;;;5033399;28;20049;-84
2022/07/20 02:10:35;;;;;;;11.55;4.10;;;23.40;54.00;;;;;;5015407;28;20057;-84
2022/07/20 02:13:04;;;;;;;10.35;4.03;;;23.40;58.30;;;;;;5015358;28;20130;-84
2022/07/20 02:18:25;;;;;;;7.93;4.18;;;23.40;56.10;;;;;;5033120;28;20049;-84
2022/07/20 02:20:51;;;;;;;10.63;3.97;;;21.50;57.40;;;;;;5032972;28;20049;-84
2022/07/20 02:23:19;;;;;;;7.72;4.00;;;23.20;54.40;;;;;;5015884;28;20056;-84
2022/07/20 02:25:45;;;;;;;7.22;4.00;;;;;;;;;;5015262;28;20124;-84
2022/07/20 02:28:14;;;;;;;12.80;4.20;;;23.20;54.40;;;;;;5033174;28;20188;-84
2022/07/20 02:30:40;;;;;;;9.98;4.40;;;;;;;;;;5014868;28;20508;-84
2022/07/20 02:33:17;;;;;;;15.18;4.40;;;23.20;54.30;;;;;;5016020;28;20492;-84
2022/07/20 02:35:46;;;;;;;7.72;4.00;;;23.60;60.10;;;;;;5033166;28;20073;-84
2022/07/20 02:38:24;;;;;;;9.52;3.97;;;23.10;54.30;;;;;;5033095;28;20055;-84
2022/07/20 02:40:53;;;;;;;13.13;4.25;;;;;;;;;;5015489;28;20056;-84
2022/07/20 02:46:05;;;;;;;8.70;4.25;;;23.10;54.60;;;;;;5018691;28;20057;-84
2022/07/20 02:48:31;;;;;;;9.20;3.95;;;23.80;58.10;;;;;;5033728;28;20534;-85
2022/07/20 02:50:57;;;;;;;5.55;3.88;;;23.50;57.60;;;;;;5018387;28;20104;-84
2022/07/20 02:53:26;;;;;;;6.43;3.80;;;22.90;56.70;;;;;;5040455;28;20046;-84
2022/07/20 02:55:53;;;;;;;7.78;3.72;;;22.90;62.20;;;;;;5042963;28;20107;-84
2022/07/20 02:58:22;;;;;;;11.70;4.20;;;25.80;61.50;;;;;;5039181;28;20052;-84
2022/07/20 03:01:01;;;;;;;9.38;4.20;;;22.80;55.30;;;;;;5016882;28;20060;-84
2022/07/20 03:03:39;;;;;;;8.75;4.05;;;22.80;60.80;;;;;;5033084;28;20061;-84
2022/07/20 03:06:05;;;;;;;10.52;4.00;;;;;;;;;;4998574;28;20057;-84
2022/07/20 03:08:32;;;;;;;10.95;4.65;;;;;;;;;;5014764;28;20053;-85
2022/07/20 03:11:09;;;;;;;7.55;4.05;;;22.80;55.70;;;;;;5032066;28;20066;-84
2022/07/20 03:13:37;;;;;;;9.18;3.90;;;21.70;63.90;;;;;;4997975;28;20060;-84
2022/07/20 03:16:30;;;;;;;6.75;3.80;;;22.80;60.30;;;;;;5014532;28;20045;-84
2022/07/20 03:19:15;;;;;;;8.38;4.10;;;22.80;59.90;;;;;;5019761;28;20137;-84
2022/07/20 03:21:41;;;;;;;10.90;4.43;;;;;;;;;;5032180;28;20451;-84
2022/07/20 03:24:13;;;;;;;7.15;4.22;;;22.60;56.20;;;;;;5032330;28;20045;-85
2022/07/20 03:26:38;;;;;;;14.25;4.35;;;22.60;59.80;;;;;;5014316;28;20107;-84
2022/07/20 03:29:09;;;;;;;11.32;4.40;;;24.00;60.70;;;;;;5032414;28;20105;-84
2022/07/20 03:31:37;;;;;;;9.02;4.30;;;22.80;59.80;;;;;;5014674;28;20076;-84
2022/07/20 03:34:08;;;;;;;10.63;4.60;;;22.40;56.70;;;;;;5032586;28;20057;-84
2022/07/20 03:36:40;;;;;;;8.70;4.25;;;24.30;62.50;;;;;;5032449;28;20638;-84
2022/07/20 03:39:06;;;;;;;9.13;4.30;;;;;;;;;;5032158;28;20195;-84
2022/07/20 03:41:38;;;;;;;9.95;4.57;;;;;;;;;;5032051;28;20516;-84
2022/07/20 03:44:09;;;;;;;7.65;4.20;;;22.40;57.00;;;;;;4998668;28;20057;-84
2022/07/20 03:46:35;;;;;;;10.13;4.50;;;;;;;;;;5032145;28;20053;-84
2022/07/20 03:49:01;;;;;;;7.75;4.38;;;;;;;;;;5014237;28;20388;-84
2022/07/20 03:51:27;;;;;;;8.98;4.50;;;22.30;57.10;;;;;;5015459;28;20105;-84
2022/07/20 03:53:53;;;;;;;21.58;4.38;;;22.00;60.70;;;;;;5035578;28;20522;-84
2022/07/20 03:56:32;;;;;;;9.65;4.65;;;22.30;57.40;;;;;;5017815;28;20060;-84
2022/07/20 03:58:58;;;;;;;8.90;4.40;;;;;;;;;;5017383;28;20053;-84
2022/07/20 04:01:33;;;;;;;10.50;4.47;;;22.30;57.80;;;;;;5017041;28;20057;-84
2022/07/20 04:04:02;;;;;;;6.05;4.28;;;23.90;63.10;;;;;;5035525;28;20120;-84
2022/07/20 04:06:40;;;;;;;9.23;4.15;;;22.30;57.80;;;;;;5017445;28;20058;-84
2022/07/20 04:09:08;;;;;;;7.25;4.55;;;23.60;59.80;;;;;;5035199;28;20045;-84
2022/07/20 04:11:40;;;;;;;10.30;4.40;;;22.30;59.00;;;;;;5035635;28;20045;-85
2022/07/20 04:14:08;;;;;;;11.65;4.78;;;22.30;61.50;;;;;;5017765;28;20057;-84
2022/07/20 04:16:34;;;;;;;11.57;4.55;;;;;;;;;;5035007;28;20499;-84
2022/07/20 04:19:03;;;;;;;9.77;4.45;;;22.30;65.20;;;;;;5040348;28;20045;-84
2022/07/20 04:21:31;;;;;;;10.25;4.35;;;22.60;61.90;;;;;;5023365;28;20056;-84
2022/07/20 04:23:57;;;;;;;12.80;4.40;;;;;;;;;;5021312;28;20113;-83
2022/07/20 04:26:46;;;;;;;21.67;4.60;;;22.40;57.60;;;;;;5003724;28;20490;-83
2022/07/20 04:29:12;;;;;;;8.00;4.50;;;;;;;;;;5018770;28;20045;-83
2022/07/20 04:31:44;;;;;;;10.70;4.43;;;22.40;57.50;;;;;;5037206;28;20049;-83
2022/07/20 04:34:10;;;;;;;9.77;4.22;;;;;;;;;;5018068;28;20064;-84
2022/07/20 04:36:41;;;;;;;14.52;4.40;;;22.60;57.60;;;;;;5002432;28;20123;-85
2022/07/20 04:39:07;;;;;;;10.40;4.50;;;22.60;61.50;;;;;;5019201;28;20472;-83
2022/07/20 04:41:33;;;;;;;10.18;4.25;;;;;;;;;;5036034;28;20056;-83
2022/07/20 04:44:08;;;;;;;9.15;4.18;;;22.80;57.70;;;;;;5020640;28;20057;-84
2022/07/20 04:46:37;;;;;;;9.73;4.25;;;23.10;61.40;;;;;;5041473;28;20538;-84
2022/07/20 04:49:07;;;;;;;13.40;4.38;;;24.20;62.20;;;;;;5038892;28;20050;-86
2022/07/20 04:51:36;;;;;;;8.43;4.03;;;24.50;57.20;;;;;;5020860;28;20072;-85
2022/07/20 04:54:07;;;;;;;7.07;3.97;;;25.60;54.40;;;;;;5023114;28;20041;-85
2022/07/20 04:56:33;;;;;;;13.88;4.03;;;;;;;;;;5019679;28;20050;-84
2022/07/20 04:59:05;;;;;;;13.85;4.10;;;27.00;51.00;;;;;;5022783;28;20571;-85
2022/07/20 05:01:38;;;;;;;9.95;4.00;;;28.20;51.90;;;;;;5021320;28;20157;-84
2022/07/20 05:04:05;;;;;;;15.23;4.60;;;28.80;50.80;;;;;;5015884;28;20058;-84
2022/07/20 05:06:31;;;;;;;14.10;4.30;;;29.40;50.00;;;;;;5016141;28;20499;-84
2022/07/20 05:09:07;;;;;;;7.47;4.00;;;30.50;49.60;;;;;;5016777;28;20128;-85
2022/07/20 05:11:36;;;;;;;8.10;3.80;;;;;;;;;;5001643;28;20064;-84
2022/07/20 05:14:02;;;;;;;13.68;4.45;;;;;;;;;;5000951;28;20404;-85
2022/07/20 05:17:12;;;;;;;11.80;4.60;;;31.70;43.20;;;;;;5035356;28;20038;-85
2022/07/20 05:19:45;;;;;;;12.50;4.18;;;30.40;43.80;;;;;;5039267;28;20045;-85
2022/07/20 05:22:15;;;;;;;13.65;4.40;;;32.80;45.30;;;;;;5056760;28;20052;-85
2022/07/20 05:24:43;;;;;;;6.22;4.20;;;;;;;;;;5037978;28;20049;-85
2022/07/20 05:27:09;;;;;;;6.68;3.72;;;33.00;40.70;;;;;;5023313;28;20084;-84
2022/07/20 05:29:35;;;;;;;9.30;4.32;;;33.40;45.90;;;;;;5035792;28;20644;-84
2022/07/20 05:32:04;;;;;;;7.20;3.85;;;33.70;42.50;;;;;;5001233;28;20508;-85
2022/07/20 05:34:30;;;;;;;9.18;4.05;;;;;;;;;;5014698;28;20049;-85
2022/07/20 05:36:56;;;;;;;11.88;3.88;;;;;;;;;;5036301;28;20057;-84
2022/07/20 05:39:22;;;;;;;12.35;4.05;;;;;;;;;;5036435;28;20049;-84
2022/07/20 05:41:47;;;;;;;15.48;4.53;;;35.20;37.40;;;;;;5038620;28;20099;-84
2022/07/20 05:44:15;;;;;;;13.50;4.07;;;35.70;40.30;;;;;;5037884;28;20045;-85
2022/07/20 05:46:41;;;;;;;10.25;3.80;;;;;;;;;;5021701;28;20103;-84
2022/07/20 05:49:13;;;;;;;6.82;3.80;;;;;;;;;;5038432;28;20069;-85
2022/07/20 05:51:39;;;;;;;9.93;3.97;;;36.60;35.90;;;;;;5014603;28;20057;-84
2022/07/20 05:54:05;;;;;;;10.25;3.78;;;36.90;37.00;;;;;;5021737;28;20555;-85
2022/07/20 05:56:34;;;;;;;13.27;3.75;;;37.20;37.70;;;;;;5039606;28;20091;-85
2022/07/20 05:59:11;;;;;;;10.65;3.90;;;37.20;38.50;;;;;;5041208;28;20053;-85
2022/07/20 06:01:38;;;;;;;17.55;4.60;;;38.60;36.30;;;;;;5042988;28;20045;-85
2022/07/20 06:04:04;;;;;;;12.30;4.38;;;37.40;37.70;;;;;;5028422;28;20101;-85
2022/07/20 06:06:29;;;;;;;6.70;4.10;;;37.70;38.20;;;;;;5030971;28;20455;-85
2022/07/20 06:08:55;;;;;;;7.38;4.00;;;38.10;37.60;;;;;;5038293;28;20136;-85
2022/07/20 06:11:20;;;;;;;8.43;4.03;;;38.30;39.00;;;;;;5056836;28;20079;-85
2022/07/20 06:13:49;;;;;;;7.80;4.10;;;38.60;37.30;;;;;;5038104;28;20038;-85
2022/07/20 06:16:18;;;;;;;9.15;3.92;;;38.00;33.70;;;;;;5035929;28;20099;-84
2022/07/20 06:18:43;;;;;;;9.32;3.95;;;39.10;37.40;;;;;;5000940;28;20400;-85
2022/07/20 06:21:36;;;;;;;9.40;4.07;;;39.30;37.00;;;;;;5017889;28;20175;-84
2022/07/20 06:24:05;;;;;;;11.48;4.00;;;39.10;34.10;;;;;;5031349;28;20457;-84
2022/07/20 06:26:34;;;;;;;15.68;4.20;;;39.20;36.70;;;;;;5018997;28;20045;-85
2022/07/20 06:29:06;;;;;;;17.50;4.15;;;39.40;32.80;;;;;;5017308;28;20049;-84
2022/07/20 06:31:42;;;;;;;21.42;4.45;;;39.70;37.70;;;;;;5017079;28;20049;-84
2022/07/20 06:34:13;;;;;;;17.90;4.18;;;40.10;36.00;;;;;;5006798;28;20049;-85
2022/07/20 06:36:44;;;;;;;11.90;4.00;;;40.70;33.60;;;;;;5017199;28;20053;-84
2022/07/20 06:39:13;;;;;;;9.52;4.25;;;;;;;;;;5018711;28;20049;-85
2022/07/20 06:41:43;;;;;;;7.72;4.28;;;;;;;;;;5036621;28;20060;-86
2022/07/20 06:44:09;;;;;;;12.60;4.30;;;40.30;33.10;;;;;;5035728;28;20056;-84
2022/07/20 06:46:37;;;;;;;11.35;4.30;;;;;;;;;;5013358;28;20053;-83
2022/07/20 06:49:06;;;;;;;14.77;4.20;;;40.50;31.60;;;;;;5042365;28;20060;-84
2022/07/20 06:51:38;;;;;;;12.77;4.45;;;40.60;34.80;;;;;;5031207;28;20076;-85
2022/07/20 06:54:10;;;;;;;9.18;4.00;;;39.20;34.80;;;;;;5025154;28;20049;-84
2022/07/20 06:56:40;;;;;;;10.55;4.50;;;40.40;34.90;;;;;;5033219;28;20109;-85
2022/07/20 06:59:09;;;;;;;11.70;4.35;;;;;;;;;;5055718;28;20044;-85
2022/07/20 07:01:44;;;;;;;10.75;4.30;;;40.70;36.00;;;;;;5037003;28;20069;-85
2022/07/20 07:04:31;;;;;;;5.88;4.03;;;;;;;;;;5032374;28;20062;-85
2022/07/20 07:07:03;;;;;;;18.85;4.22;;;40.90;31.70;;;;;;5039786;28;20488;-85
2022/07/20 07:09:29;;;;;;;15.98;3.90;;;;;;;;;;5038935;28;20049;-84
2022/07/20 07:11:57;;;;;;;12.48;4.32;;;41.40;31.70;;;;;;5009142;28;20053;-84
2022/07/20 07:14:29;;;;;;;14.65;4.07;;;41.60;34.70;;;;;;5019690;28;20050;-84
2022/07/20 07:16:57;;;;;;;11.45;3.80;;;;;;;;;;5020000;28;20084;-84
2022/07/20 07:19:26;;;;;;;8.98;4.18;;;41.50;32.10;;;;;;5020938;28;20053;-85
2022/07/20 07:22:14;;;;;;;9.50;3.90;;;41.30;31.60;;;;;;4989803;28;20045;-84
2022/07/20 07:24:45;;;;;;;8.27;4.03;;;40.60;35.30;;;;;;5031514;28;20041;-84
2022/07/20 07:27:21;;;;;;;12.27;4.45;;;40.60;31.70;;;;;;5027959;28;20073;-86
2022/07/20 07:29:50;;;;;;;10.68;4.28;;;;;;;;;;5047216;28;20048;-85
2022/07/20 07:32:16;;;;;;;8.60;4.03;;;;;;;;;;5049564;28;20053;-84
2022/07/20 07:34:45;;;;;;;15.65;4.40;;;;;;;;;;5027736;28;20060;-85
2022/07/20 07:37:21;;;;;;;11.20;4.45;;;39.60;32.90;;;;;;5051456;28;20049;-84
2022/07/20 07:39:50;;;;;;;14.18;4.47;;;39.10;34.20;;;;;;5030961;28;20049;-85
2022/07/20 07:42:21;;;;;;;9.70;4.43;;;;;;;;;;5021745;28;20054;-85
2022/07/20 07:44:50;;;;;;;18.25;5.10;;;38.80;34.40;;;;;;5052034;28;20037;-84
2022/07/20 07:47:26;;;;;;;11.07;4.93;;;38.20;34.70;;;;;;5052817;28;20429;-84
2022/07/20 07:49:52;;;;;;;10.18;4.60;;;;;;;;;;5018307;28;20096;-84
2022/07/20 07:52:18;;;;;;;13.60;4.90;;;38.10;35.30;;;;;;5035616;28;20045;-84
2022/07/20 07:54:46;;;;;;;14.23;5.40;;;38.00;38.40;;;;;;5035232;28;20053;-85
2022/07/20 07:57:18;;;;;;;13.38;5.18;;;37.40;40.80;;;;;;5053072;28;20053;-85
2022/07/20 07:59:44;;;;;;;12.90;5.72;;;;;;;;;;5038786;28;20089;-84
2022/07/20 08:02:19;;;;;;;14.95;6.00;;;37.10;36.80;;;;;;5038374;28;20032;-86
2022/07/20 08:04:45;;;;;;;11.43;6.15;;;;;;;;;;5022712;28;20041;-85
2022/07/20 08:07:17;;;;;;;12.00;6.75;;;36.70;37.90;;;;;;5040602;28;20053;-84
2022/07/20 08:09:44;;;;;;;10.50;6.63;;;;;;;;;;5038972;28;20110;-85
2022/07/20 08:12:10;;;;;;;13.63;6.97;;;;;;;;;;5033579;28;20045;-86
2022/07/20 08:14:39;;;;;;;19.27;7.50;;;35.80;41.10;;;;;;5034627;28;20045;-85
2022/07/20 08:17:08;;;;;;;23.75;7.85;;;35.70;45.60;;;;;;5040538;28;20049;-85
2022/07/20 08:19:37;;;;;;;19.73;8.15;;;;;;;;;;5041483;28;20083;-86
2022/07/20 08:22:09;;;;;;;13.82;8.65;;;35.40;42.30;;;;;;5058473;28;20095;-86
2022/07/20 08:24:38;;;;;;;20.83;9.13;;;33.60;42.80;;;;;;5058132;28;20049;-84
2022/07/20 08:27:04;;;;;;;22.35;9.30;;;;;;;;;;5041068;28;20037;-85
2022/07/20 08:29:30;;;;;;;24.63;9.98;;;;;;;;;;5029332;28;20069;-85
2022/07/20 08:31:59;;;;;;;18.63;10.55;;;34.80;44.80;;;;;;5041648;28;20045;-86
2022/07/20 08:34:28;;;;;;;20.15;11.43;;;34.40;48.10;;;;;;5040835;28;20048;-86
2022/07/20 08:36:56;;;;;;;18.92;11.95;;;34.80;50.10;;;;;;5024149;28;20065;-85
2022/07/20 08:39:28;;;;;;;21.38;12.23;;;35.00;50.70;;;;;;5040358;28;20056;-86
2022/07/20 08:41:57;;;;;;;35.13;13.73;;;32.30;51.60;;;;;;5021509;28;20079;-86
2022/07/20 08:44:28;;;;;;;26.50;13.75;;;34.20;51.80;;;;;;5057523;28;20073;-85
2022/07/20 08:47:10;;;;;;;28.52;14.32;;;33.90;52.10;;;;;;5055548;28;20144;-84
2022/07/20 08:49:56;;;;;;;32.03;14.98;;;33.70;50.00;;;;;;5057225;28;20041;-85
2022/07/20 08:52:22;;;;;;;22.88;13.68;;;31.30;52.40;;;;;;5039746;28;20034;-84
2022/07/20 08:54:50;;;;;;;21.75;13.57;;;33.60;50.10;;;;;;5057071;28;20045;-85
2022/07/20 08:57:19;;;;;;;21.40;14.07;;;;;;;;;;5057221;28;20112;-87
2022/07/20 08:59:51;;;;;;;36.25;15.68;;;33.60;50.00;;;;;;5021137;28;20041;-85
2022/07/20 09:02:20;;;;;;;22.70;14.57;;;36.60;56.00;;;;;;5036430;28;20049;-86
2022/07/20 09:05:09;;;;;;;44.10;14.07;;;31.80;53.70;;;;;;5054639;28;20068;-82
2022/07/20 09:07:49;;;;;;;26.23;14.65;;;33.00;55.80;;;;;;5026064;28;20057;-84
2022/07/20 09:10:25;;;;;;;26.23;14.07;;;33.60;51.20;;;;;;5038679;28;20052;-86
2022/07/20 09:13:13;;;;;;;26.80;13.95;;;33.60;50.80;;;;;;5034567;28;20049;-83
2022/07/20 09:15:58;;;;;;;24.77;14.52;;;;;;;;;;5037143;28;20044;-83
2022/07/20 09:19:10;;;;;;;31.92;15.15;;;33.30;53.30;;;;;;5035940;28;20041;-84
2022/07/20 09:21:41;;;;;;;36.10;15.85;;;33.40;54.80;;;;;;4988466;28;20049;-85
2022/07/20 09:24:16;;;;;;;29.00;16.05;;;33.10;55.80;;;;;;5037777;28;20064;-84
2022/07/20 09:26:45;;;;;;;24.55;16.20;;;;;;;;;;5039275;28;20096;-85
2022/07/20 09:29:17;;;;;;;38.92;16.88;;;32.80;51.20;;;;;;5020542;28;20053;-85
2022/07/20 09:32:05;;;;;;;29.08;16.95;;;32.90;54.80;;;;;;5020226;28;20045;-84
2022/07/20 09:34:45;;;;;;;25.15;17.10;;;32.50;51.10;;;;;;5038997;28;20101;-85
2022/07/20 09:37:37;;;;;;;29.83;18.27;;;32.80;52.80;;;;;;5022710;28;20037;-86
2022/07/20 09:40:10;;;;;;;56.05;19.63;;;34.20;55.60;;;;;;5048281;28;20050;-85
2022/07/20 09:42:46;;;;;;;29.92;18.15;;;32.40;51.00;;;;;;5023267;28;20042;-85
2022/07/20 09:45:25;;;;;;;33.42;18.33;;;32.20;54.40;;;;;;5041497;28;20052;-86
2022/07/20 09:48:21;;;;;;;30.83;19.33;;;31.40;51.40;;;;;;5055081;28;20044;-85
2022/07/20 09:51:30;;;;;;;33.58;19.05;;;32.20;51.20;;;;;;5033610;28;20033;-85
2022/07/20 09:54:09;;;;;;;29.02;18.30;;;32.30;51.20;;;;;;5032624;28;20034;-83
2022/07/20 09:56:52;;;;;;;30.17;18.42;;;32.90;53.80;;;;;;5035823;28;20042;-85
2022/07/20 09:59:51;;;;;;;25.23;17.42;;;32.30;55.80;;;;;;5053217;28;20056;-82
2022/07/20 10:02:26;;;;;;;29.75;17.77;;;32.70;52.00;;;;;;5015450;28;20025;-85
2022/07/20 10:04:54;;;;;;;26.15;16.65;;;32.30;51.60;;;;;;5054338;28;20037;-85
2022/07/20 10:07:36;;;;;;;29.35;16.85;;;;;;;;;;5055335;28;20061;-83
2022/07/20 10:10:33;;;;;;;27.02;16.58;;;32.30;49.40;;;;;;5020650;28;20026;-84
2022/07/20 10:13:00;;;;;;;23.10;16.08;;;32.40;51.40;;;;;;4989247;28;20038;-86
2022/07/20 10:15:44;;;;;;;26.25;14.70;;;32.50;49.50;;;;;;5039449;28;20056;-86
2022/07/20 10:18:13;;;;;;;23.50;14.55;;;32.60;50.40;;;;;;5026085;28;20042;-86
2022/07/20 10:20:49;;;;;;;20.38;14.10;;;;;;;;;;5031114;28;20083;-86
2022/07/20 10:26:26;;;;;;;24.30;14.77;;;32.50;49.60;;;;;;5036216;28;20101;-86
2022/07/20 10:28:58;;;;;;;22.90;14.50;;;32.50;50.00;;;;;;5027486;28;20033;-86
2022/07/20 10:32:00;;;;;;;23.27;13.95;;;32.50;51.40;;;;;;5046452;28;20037;-86
2022/07/20 10:34:50;;;;;;;25.52;13.45;;;32.80;50.80;;;;;;5035274;28;20118;-85
2022/07/20 10:37:42;;;;;;;23.30;12.80;;;30.80;49.00;;;;;;5017946;28;20041;-84
2022/07/20 10:40:28;;;;;;;18.38;12.40;;;32.30;49.80;;;;;;5034167;28;20034;-86
2022/07/20 10:43:32;;;;;;;21.58;12.50;;;32.50;52.80;;;;;;5022402;28;20045;-85
2022/07/20 10:46:02;;;;;;;23.20;12.00;;;;;;;;;;5051928;28;20100;-86
2022/07/20 10:48:50;;;;;;;17.23;11.63;;;32.40;48.70;;;;;;5039554;28;20064;-86
2022/07/20 10:51:19;;;;;;;18.35;11.88;;;30.40;51.10;;;;;;5039279;28;20049;-85
2022/07/20 10:53:45;;;;;;;21.08;12.48;;;32.70;50.80;;;;;;5047278;28;20025;-86
2022/07/20 10:56:11;;;;;;;22.73;11.70;;;;;;;;;;5039308;28;20041;-86
2022/07/20 10:58:46;;;;;;;18.80;11.57;;;32.50;49.40;;;;;;5039409;28;20030;-85
2022/07/20 11:01:18;;;;;;;26.05;12.38;;;32.70;50.40;;;;;;5039879;28;20033;-85
2022/07/20 11:03:49;;;;;;;20.83;12.65;;;32.50;52.70;;;;;;5024481;28;20060;-85
2022/07/20 11:06:25;;;;;;;18.48;11.25;;;32.50;51.30;;;;;;5060044;28;20037;-85
2022/07/20 11:09:17;;;;;;;20.60;11.15;;;32.70;53.70;;;;;;5056996;28;20061;-86
2022/07/20 11:11:42;;;;;;;21.33;10.98;;;32.50;53.20;;;;;;5041406;28;20045;-86
2022/07/20 11:14:14;;;;;;;17.90;10.10;;;32.50;53.20;;;;;;5042277;28;20094;-83
2022/07/20 11:16:43;;;;;;;20.25;10.00;;;;;;;;;;5024219;28;20116;-84
2022/07/20 11:19:09;;;;;;;18.77;10.00;;;;;;;;;;5042446;28;20049;-87
2022/07/20 11:21:43;;;;;;;16.67;9.48;;;32.50;49.90;;;;;;5059498;28;20106;-86
2022/07/20 11:24:32;;;;;;;14.38;9.18;;;32.50;50.80;;;;;;5026284;28;20025;-85
2022/07/20 11:27:14;;;;;;;16.67;9.27;;;32.80;52.90;;;;;;5041557;28;20072;-85
2022/07/20 11:29:48;;;;;;;13.02;8.85;;;30.90;49.20;;;;;;5042373;28;20069;-85
2022/07/20 11:32:13;;;;;;;14.68;8.68;;;32.80;52.20;;;;;;5059452;28;20043;-85
2022/07/20 11:34:58;;;;;;;17.13;8.88;;;32.70;51.60;;;;;;5024336;28;20038;-84
2022/07/20 11:37:29;;;;;;;17.45;8.75;;;32.60;49.30;;;;;;5041962;28;20037;-86
2022/07/20 11:39:55;;;;;;;17.48;8.88;;;32.70;51.30;;;;;;5041736;28;20033;-85
2022/07/20 11:42:29;;;;;;;12.98;8.10;;;32.90;53.20;;;;;;5038417;28;20046;-84
2022/07/20 11:45:02;;;;;;;20.83;8.30;;;32.60;49.20;;;;;;5025255;28;20041;-84
2022/07/20 11:47:42;;;;;;;15.27;8.10;;;31.20;48.30;;;;;;5024517;28;20045;-84
2022/07/20 11:50:40;;;;;;;14.30;7.30;;;32.60;48.40;;;;;;5058958;28;20041;-83
2022/07/20 11:53:21;;;;;;;20.63;7.43;;;32.60;49.40;;;;;;5029308;28;20058;-84
2022/07/20 11:55:50;;;;;;;15.20;7.45;;;32.80;48.80;;;;;;5024728;28;20045;-83
2022/07/20 11:58:34;;;;;;;14.82;7.28;;;32.90;54.00;;;;;;5058577;28;20125;-85
2022/07/20 12:01:08;;;;;;;14.80;7.63;;;34.10;50.60;;;;;;5058005;28;20133;-84
2022/07/20 12:03:38;;;;;;;;;;;32.70;52.20;;;;;;5043168;28;20045;-85
2022/07/20 12:06:32;;;;;;;17.33;7.47;;;32.10;49.50;;;;;;5025857;28;19947;-85
2022/07/20 12:09:12;;;;;;;15.73;7.70;;;33.40;52.10;;;;;;5039459;28;20148;-85
2022/07/20 12:11:59;;;;;;;14.18;7.75;;;31.60;48.40;;;;;;5041525;28;20280;-85
2022/07/20 12:14:41;;;;;;;14.63;6.80;;;33.50;52.90;;;;;;5040100;28;20057;-84
2022/07/20 12:17:46;;;;;;;10.55;6.80;;;33.10;49.00;;;;;;5055234;28;20073;-85
2022/07/20 12:20:12;;;;;;;12.87;6.60;;;;;;;;;;5022297;28;20103;-85
2022/07/20 12:23:04;;;;;;;12.25;6.43;;;33.10;47.50;;;;;;5024958;28;20046;-84
2022/07/20 12:25:43;;;;;;;20.08;5.82;;;32.90;49.50;;;;;;5017134;28;20061;-84
2022/07/20 12:28:35;;;;;;;12.52;5.68;;;33.10;45.60;;;;;;5017325;28;20053;-85
2022/07/20 12:31:18;;;;;;;13.52;5.68;;;33.00;46.40;;;;;;5055347;28;20057;-84
2022/07/20 12:34:28;;;;;;;11.05;5.90;;;31.10;47.70;;;;;;5054920;28;20029;-85
2022/07/20 12:36:54;;;;;;;9.57;5.85;;;33.00;49.10;;;;;;5023558;28;20050;-84
2022/07/20 12:39:40;;;;;;;13.27;6.40;;;33.20;49.10;;;;;;5040721;28;20032;-85
2022/07/20 12:42:27;;;;;;;10.60;6.05;;;33.70;48.30;;;;;;5041813;28;20061;-85
2022/07/20 12:45:10;;;;;;;13.63;6.22;;;33.00;50.40;;;;;;5024208;28;20195;-85
2022/07/20 12:47:44;;;;;;;11.30;6.85;;;33.20;48.20;;;;;;5036472;28;20049;-86
2022/07/20 12:50:10;;;;;;;11.73;6.25;;;33.40;49.20;;;;;;5058043;28;20044;-86
2022/07/20 12:52:35;;;;;;;10.18;6.10;;;32.10;48.90;;;;;;5058139;28;20112;-85
2022/07/20 12:55:01;;;;;;;14.07;6.57;;;;;;;;;;5041100;28;20188;-85
2022/07/20 12:57:50;;;;;;;13.05;6.45;;;33.50;46.30;;;;;;5041305;28;20033;-85
2022/07/20 13:00:16;;;;;;;10.90;6.18;;;;;;;;;;5024591;28;20049;-86
2022/07/20 13:02:42;;;;;;;12.10;5.82;;;;;;;;;;5039888;28;20053;-85
2022/07/20 13:05:33;;;;;;;10.10;6.00;;;33.60;46.00;;;;;;5023375;28;20055;-86
2022/07/20 13:08:05;;;;;;;11.40;6.18;;;33.70;49.60;;;;;;5038993;28;20121;-86
2022/07/20 13:10:31;;;;;;;15.15;6.57;;;33.60;49.60;;;;;;5039579;28;20045;-86
2022/07/20 13:12:56;;;;;;;9.93;6.65;;;33.70;50.60;;;;;;5039730;28;20080;-86
2022/07/20 13:15:25;;;;;;;12.63;6.55;;;33.90;50.40;;;;;;5040423;28;20047;-86
2022/07/20 13:17:54;;;;;;;12.77;6.75;;;33.80;46.50;;;;;;5023943;28;20033;-86
2022/07/20 13:20:26;;;;;;;12.07;6.18;;;33.90;49.10;;;;;;5040241;28;20049;-86
2022/07/20 13:23:07;;;;;;;9.88;6.25;;;33.80;45.60;;;;;;5012112;28;20038;-85
2022/07/20 13:25:42;;;;;;;8.93;5.78;;;33.90;52.70;;;;;;5038067;28;20029;-87
2022/07/20 13:28:20;;;;;;;7.88;5.40;;;34.10;48.90;;;;;;5035059;28;20049;-86
2022/07/20 13:31:15;;;;;;;9.73;6.07;;;34.10;46.70;;;;;;5040595;28;20041;-86
2022/07/20 13:33:44;;;;;;;10.13;5.53;;;34.20;45.00;;;;;;5040232;28;20026;-86
2022/07/20 13:36:27;;;;;;;10.63;5.90;;;34.00;47.20;;;;;;5040436;28;20033;-86
2022/07/20 13:38:56;;;;;;;9.43;6.32;;;;;;;;;;5057047;28;20068;-85
2022/07/20 13:41:26;;;;;;;10.68;6.50;;;34.20;44.70;;;;;;5040143;28;20037;-86